Time;durP1;ratioP1;P1;durP2;ratioP2;P2;SDS_P1;SDS_P2;PMS_P1;PMS_P2;Temp;Humidity;BMP_temperature;BMP_pressure;BME280_temperature;BME280_humidity;BME280_pressure;Samples;Min_cycle;Max_cycle;Signal;HPM_P1;HPM_P2
2023/07/22 00:01:49;;;;;;;2.17;1.80;;;;;;;;;;5005697;28;20152;-69
2023/07/22 00:04:15;;;;;;;2.72;1.90;;;;;;;;;;5008260;28;20506;-69
2023/07/22 00:06:41;;;;;;;4.70;2.00;;;;;;;;;;5006172;28;20176;-69
2023/07/22 00:09:07;;;;;;;2.92;1.80;;;;;;;;;;5010217;28;20165;-69
2023/07/22 00:11:33;;;;;;;5.75;2.08;;;;;;;;;;5007558;28;20085;-70
2023/07/22 00:13:59;;;;;;;2.50;2.20;;;;;;;;;;5005396;28;20053;-69
2023/07/22 00:16:25;;;;;;;7.18;2.22;;;;;;;;;;5008871;28;20060;-69
2023/07/22 00:18:51;;;;;;;2.45;1.98;;;;;;;;;;4997551;28;20109;-69
2023/07/22 00:21:17;;;;;;;2.78;2.05;;;;;;;;;;5006299;28;20087;-69
2023/07/22 00:23:43;;;;;;;5.20;2.10;;;;;;;;;;5010094;28;20132;-69
2023/07/22 00:26:12;;;;;;;2.40;1.90;;;;;;;;;;5005337;28;20046;-69
2023/07/22 00:28:38;;;;;;;2.60;2.10;;;;;;;;;;5000235;28;20185;-69
2023/07/22 00:31:04;;;;;;;3.15;2.00;;;;;;;;;;5009354;28;20049;-69
2023/07/22 00:33:30;;;;;;;3.28;2.10;;;;;;;;;;5010013;28;20042;-69
2023/07/22 00:35:57;;;;;;;4.43;2.10;;;;;;;;;;4993690;28;20390;-69
2023/07/22 00:38:23;;;;;;;3.75;2.10;;;;;;;;;;5005021;28;20041;-69
2023/07/22 00:40:49;;;;;;;3.00;2.30;;;;;;;;;;5007255;28;20038;-69
2023/07/22 00:43:16;;;;;;;2.88;2.22;;;;;;;;;;5009042;28;20139;-69
2023/07/22 00:45:42;;;;;;;3.72;2.20;;;;;;;;;;5010256;28;20093;-69
2023/07/22 00:48:09;;;;;;;3.88;2.35;;;;;;;;;;5008679;28;20512;-68
2023/07/22 00:50:36;;;;;;;4.13;2.55;;;;;;;;;;5010304;28;20393;-68
2023/07/22 00:53:02;;;;;;;2.63;2.13;;;;;;;;;;5005097;28;20088;-69
2023/07/22 00:55:28;;;;;;;3.58;2.45;;;;;;;;;;4999818;28;20049;-68
2023/07/22 00:57:55;;;;;;;4.75;2.67;;;;;;;;;;5005864;28;20092;-69
2023/07/22 01:00:21;;;;;;;3.58;2.40;;;;;;;;;;5009279;28;20077;-68
2023/07/22 01:02:47;;;;;;;6.05;2.72;;;;;;;;;;5009366;28;20513;-69
2023/07/22 01:05:14;;;;;;;5.70;2.30;;;;;;;;;;5012304;28;20149;-69
2023/07/22 01:07:40;;;;;;;4.20;2.67;;;;;;;;;;5010871;28;20049;-68
2023/07/22 01:10:06;;;;;;;4.13;2.47;;;;;;;;;;5010016;28;20497;-69
2023/07/22 01:12:33;;;;;;;3.67;2.50;;;;;;;;;;5011466;28;20038;-69
2023/07/22 01:14:59;;;;;;;5.63;2.60;;;;;;;;;;5012908;28;20050;-69
2023/07/22 01:17:25;;;;;;;6.68;2.60;;;;;;;;;;5005515;28;20101;-69
2023/07/22 01:19:52;;;;;;;3.00;2.33;;;;;;;;;;5008771;28;20137;-68
2023/07/22 01:22:18;;;;;;;5.05;2.60;;;;;;;;;;5013820;28;20049;-69
2023/07/22 01:24:44;;;;;;;4.68;2.80;;;;;;;;;;5014678;28;20042;-69
2023/07/22 01:27:12;;;;;;;5.30;2.90;;;;;;;;;;5007509;28;20383;-69
2023/07/22 01:29:38;;;;;;;5.80;2.80;;;;;;;;;;5013216;28;20061;-70
2023/07/22 01:32:05;;;;;;;2.70;2.50;;;;;;;;;;5012323;28;20046;-69
2023/07/22 01:34:31;;;;;;;5.00;2.80;;;;;;;;;;5014267;28;20496;-69
2023/07/22 01:36:57;;;;;;;4.45;3.05;;;;;;;;;;5013333;28;20054;-69
2023/07/22 01:39:23;;;;;;;4.63;3.00;;;;;;;;;;5014193;28;20046;-69
2023/07/22 01:41:49;;;;;;;3.83;2.50;;;;;;;;;;5013714;28;20080;-69
2023/07/22 01:44:16;;;;;;;6.80;3.38;;;;;;;;;;5014462;28;20037;-69
2023/07/22 01:46:42;;;;;;;6.55;3.25;;;;;;;;;;5028925;28;20085;-70
2023/07/22 01:49:11;;;;;;;4.47;3.03;;;;;;;;;;5012962;28;20451;-70
2023/07/22 01:51:38;;;;;;;3.90;2.72;;;;;;;;;;5013193;28;20045;-70
2023/07/22 01:54:04;;;;;;;4.72;3.10;;;;;;;;;;5012757;28;20437;-70
2023/07/22 01:56:30;;;;;;;5.03;3.40;;;;;;;;;;5013442;28;20152;-70
2023/07/22 01:58:56;;;;;;;6.95;3.60;;;;;;;;;;5013054;28;20470;-69
2023/07/22 02:01:22;;;;;;;5.88;3.60;;;;;;;;;;5009838;28;20077;-70
2023/07/22 02:03:48;;;;;;;6.82;3.80;;;;;;;;;;5005588;28;20124;-70
2023/07/22 02:06:15;;;;;;;5.53;3.78;;;;;;;;;;5012884;28;20120;-70
2023/07/22 02:08:41;;;;;;;6.68;3.92;;;;;;;;;;5013033;28;20041;-70
2023/07/22 02:11:08;;;;;;;7.70;4.43;;;;;;;;;;5011568;28;20054;-69
2023/07/22 02:13:35;;;;;;;5.47;4.00;;;;;;;;;;5012097;28;20053;-70
2023/07/22 02:16:02;;;;;;;7.85;4.28;;;;;;;;;;5010763;28;20045;-70
2023/07/22 02:18:28;;;;;;;5.50;4.55;;;;;;;;;;5013563;28;20069;-70
2023/07/22 02:20:54;;;;;;;6.55;4.43;;;;;;;;;;5012173;28;20060;-70
2023/07/22 02:23:21;;;;;;;7.75;4.95;;;;;;;;;;5012258;28;20045;-70
2023/07/22 02:25:50;;;;;;;7.78;4.50;;;;;;;;;;5008063;28;20092;-70
2023/07/22 02:28:21;;;;;;;7.22;4.80;;;;;;;;;;5014217;28;20065;-69
2023/07/22 02:30:47;;;;;;;8.65;5.35;;;;;;;;;;5009548;28;20054;-69
2023/07/22 02:33:14;;;;;;;8.23;5.57;;;;;;;;;;5013689;28;20038;-69
2023/07/22 02:35:41;;;;;;;8.68;4.97;;;;;;;;;;5011938;28;20049;-70
2023/07/22 02:38:07;;;;;;;7.35;5.07;;;;;;;;;;5013813;28;20038;-69
2023/07/22 02:40:37;;;;;;;9.35;5.03;;;;;;;;;;5010106;28;20112;-69
2023/07/22 02:43:03;;;;;;;9.82;5.70;;;;;;;;;;5010344;28;20077;-70
2023/07/22 02:45:29;;;;;;;8.10;5.38;;;;;;;;;;5008483;28;20076;-69
2023/07/22 02:47:55;;;;;;;10.30;6.38;;;;;;;;;;5010001;28;20042;-69
2023/07/22 02:50:21;;;;;;;7.97;5.57;;;;;;;;;;5007070;28;20049;-70
2023/07/22 02:52:47;;;;;;;8.50;5.88;;;;;;;;;;5002171;28;20087;-69
2023/07/22 02:55:14;;;;;;;10.32;6.00;;;;;;;;;;5000012;28;20497;-69
2023/07/22 02:57:41;;;;;;;9.15;6.43;;;;;;;;;;5010832;28;20402;-70
2023/07/22 03:00:08;;;;;;;9.57;5.97;;;;;;;;;;5009554;28;20052;-69
2023/07/22 03:02:38;;;;;;;8.68;6.22;;;;;;;;;;5011173;28;20046;-70
2023/07/22 03:05:07;;;;;;;10.90;6.18;;;;;;;;;;5012194;28;20486;-70
2023/07/22 03:07:34;;;;;;;9.07;6.25;;;;;;;;;;5002018;28;20836;-70
2023/07/22 03:10:00;;;;;;;10.45;6.43;;;;;;;;;;5011351;28;20497;-70
2023/07/22 03:12:27;;;;;;;8.88;6.10;;;;;;;;;;5010638;28;20050;-69
2023/07/22 03:14:53;;;;;;;10.38;6.20;;;;;;;;;;5010040;28;20423;-69
2023/07/22 03:17:19;;;;;;;9.32;6.80;;;;;;;;;;5011186;28;20041;-70
2023/07/22 03:19:45;;;;;;;10.60;7.15;;;;;;;;;;5012230;28;20099;-69
2023/07/22 03:22:14;;;;;;;10.07;6.53;;;;;;;;;;5010708;28;20042;-69
2023/07/22 03:24:40;;;;;;;11.40;6.82;;;;;;;;;;5010466;28;20103;-70
2023/07/22 03:27:06;;;;;;;11.23;6.75;;;;;;;;;;5024676;28;20410;-70
2023/07/22 03:29:32;;;;;;;8.55;6.43;;;;;;;;;;5010779;28;20046;-70
2023/07/22 03:31:59;;;;;;;10.38;6.70;;;;;;;;;;5002694;28;20050;-70
2023/07/22 03:34:26;;;;;;;10.93;7.22;;;;;;;;;;4991371;28;20050;-70
2023/07/22 03:36:52;;;;;;;9.02;6.88;;;;;;;;;;4998418;28;20054;-70
2023/07/22 03:39:18;;;;;;;14.57;7.70;;;;;;;;;;5011924;28;20045;-70
2023/07/22 03:41:44;;;;;;;9.82;7.20;;;;;;;;;;5013173;28;20053;-70
2023/07/22 03:44:10;;;;;;;11.73;7.05;;;;;;;;;;5011992;28;20389;-71
2023/07/22 03:46:36;;;;;;;11.70;7.60;;;;;;;;;;5007249;28;20041;-70
2023/07/22 03:49:02;;;;;;;10.15;7.28;;;;;;;;;;5003654;28;20045;-70
2023/07/22 03:51:28;;;;;;;9.98;7.05;;;;;;;;;;5011087;28;20053;-70
2023/07/22 03:53:54;;;;;;;11.50;6.88;;;;;;;;;;5013139;28;20128;-70
2023/07/22 03:56:21;;;;;;;10.68;7.30;;;;;;;;;;5008644;28;20133;-70
2023/07/22 03:58:47;;;;;;;10.57;7.55;;;;;;;;;;4993364;28;20091;-71
2023/07/22 04:01:13;;;;;;;11.68;7.78;;;;;;;;;;5011672;28;20045;-70
2023/07/22 04:03:39;;;;;;;12.77;7.47;;;;;;;;;;5006491;28;20496;-70
2023/07/22 04:06:05;;;;;;;11.23;7.72;;;;;;;;;;5011833;28;20100;-70
2023/07/22 04:08:31;;;;;;;12.32;7.75;;;;;;;;;;5010632;28;20128;-70
2023/07/22 04:10:58;;;;;;;10.52;7.10;;;;;;;;;;5007988;28;20080;-70
2023/07/22 04:13:26;;;;;;;13.00;7.60;;;;;;;;;;5010903;28;20056;-70
2023/07/22 04:15:52;;;;;;;12.77;7.97;;;;;;;;;;5010353;28;20037;-70
2023/07/22 04:18:18;;;;;;;12.27;7.68;;;;;;;;;;5011108;28;20180;-70
2023/07/22 04:20:44;;;;;;;11.38;7.53;;;;;;;;;;5008804;28;20050;-70
2023/07/22 04:23:10;;;;;;;12.82;7.72;;;;;;;;;;5009239;28;20045;-70
2023/07/22 04:25:43;;;;;;;11.13;7.60;;;;;;;;;;5008673;28;20073;-70
2023/07/22 04:28:09;;;;;;;12.80;8.30;;;;;;;;;;5011546;28;20057;-70
2023/07/22 04:30:35;;;;;;;12.32;8.30;;;;;;;;;;5004394;28;20039;-70
2023/07/22 04:33:02;;;;;;;11.65;7.80;;;;;;;;;;5009084;28;20042;-70
2023/07/22 04:35:31;;;;;;;12.32;7.88;;;;;;;;;;4997159;28;20054;-70
2023/07/22 04:37:57;;;;;;;11.18;8.25;;;;;;;;;;4998238;28;20129;-70
2023/07/22 04:40:24;;;;;;;11.63;8.35;;;;;;;;;;5010975;28;20077;-70
2023/07/22 04:42:51;;;;;;;11.02;7.78;;;;;;;;;;5010071;28;20549;-70
2023/07/22 04:45:20;;;;;;;12.95;8.07;;;;;;;;;;5010817;28;20038;-70
2023/07/22 04:47:48;;;;;;;8.95;7.30;;;;;;;;;;5009774;28;20544;-71
2023/07/22 04:50:14;;;;;;;11.02;7.85;;;;;;;;;;4998825;28;20449;-70
2023/07/22 04:52:42;;;;;;;10.68;7.47;;;;;;;;;;4992222;28;20054;-70
2023/07/22 04:55:09;;;;;;;11.32;7.88;;;;;;;;;;4991929;28;20049;-70
2023/07/22 04:57:35;;;;;;;11.32;7.78;;;;;;;;;;5009665;28;20042;-71
2023/07/22 05:00:05;;;;;;;11.38;8.20;;;;;;;;;;5001738;28;20052;-70
2023/07/22 05:02:33;;;;;;;11.07;7.95;;;;;;;;;;5007831;28;20038;-70
2023/07/22 05:04:59;;;;;;;11.15;7.47;;;;;;;;;;5005499;28;20042;-70
2023/07/22 05:07:25;;;;;;;11.23;7.82;;;;;;;;;;4994241;28;20042;-70
2023/07/22 05:09:54;;;;;;;10.95;7.80;;;;;;;;;;5005055;28;20049;-70
2023/07/22 05:12:20;;;;;;;12.32;7.63;;;;;;;;;;5010870;28;20050;-70
2023/07/22 05:14:46;;;;;;;11.38;7.53;;;;;;;;;;5021577;28;20041;-70
2023/07/22 05:17:12;;;;;;;10.93;7.97;;;;;;;;;;5011308;28;20046;-69
2023/07/22 05:19:38;;;;;;;11.38;7.50;;;;;;;;;;5010046;28;20063;-70
2023/07/22 05:22:04;;;;;;;11.88;8.10;;;;;;;;;;5008272;28;20046;-69
2023/07/22 05:24:30;;;;;;;11.98;7.47;;;;;;;;;;4993718;28;20133;-69
2023/07/22 05:26:56;;;;;;;12.07;7.60;;;;;;;;;;5008119;28;20133;-70
2023/07/22 05:29:22;;;;;;;12.40;7.93;;;;;;;;;;4993318;28;20569;-70
2023/07/22 05:31:48;;;;;;;12.13;8.32;;;;;;;;;;5001230;28;20081;-70
2023/07/22 05:34:14;;;;;;;11.77;8.30;;;;;;;;;;5009967;28;20057;-70
2023/07/22 05:36:40;;;;;;;12.95;7.90;;;;;;;;;;5004847;28;20049;-70
2023/07/22 05:39:06;;;;;;;11.90;8.15;;;;;;;;;;5009790;28;20437;-71
2023/07/22 05:41:36;;;;;;;10.90;7.95;;;;;;;;;;5009857;28;20401;-70
2023/07/22 05:44:02;;;;;;;12.23;8.18;;;;;;;;;;5009673;28;20044;-70
2023/07/22 05:46:28;;;;;;;12.20;8.23;;;;;;;;;;5009189;28;20128;-70
2023/07/22 05:48:54;;;;;;;13.20;8.65;;;18.60;99.90;;;;;;5009533;28;20038;-70
2023/07/22 05:51:20;;;;;;;12.07;8.60;;;16.40;99.90;;;;;;5004963;28;20049;-70
2023/07/22 05:53:45;;;;;;;14.10;9.10;;;16.30;99.90;;;;;;5011140;28;20469;-70
2023/07/22 05:56:11;;;;;;;12.02;8.82;;;16.30;99.90;;;;;;5009262;28;20394;-70
2023/07/22 05:58:37;;;;;;;14.93;9.45;;;16.40;99.90;;;;;;5013413;28;20037;-70
2023/07/22 06:01:02;;;;;;;12.38;8.70;;;16.40;99.90;;;;;;5008695;28;20111;-70
2023/07/22 06:03:28;;;;;;;13.20;8.77;;;16.40;99.90;;;;;;5013334;28;20042;-70
2023/07/22 06:05:54;;;;;;;12.85;8.93;;;16.40;99.90;;;;;;5009774;28;20054;-70
2023/07/22 06:08:19;;;;;;;16.23;9.88;;;16.40;99.90;;;;;;5012032;28;20078;-70
2023/07/22 06:10:45;;;;;;;15.23;9.05;;;16.40;99.90;;;;;;5009216;28;20099;-70
2023/07/22 06:13:11;;;;;;;14.82;9.68;;;16.40;99.90;;;;;;5006110;28;20101;-70
2023/07/22 06:15:37;;;;;;;13.85;9.90;;;16.40;99.90;;;;;;5012749;28;20385;-70
2023/07/22 06:18:02;;;;;;;15.25;9.68;;;16.40;99.90;;;;;;5012159;28;20386;-70
2023/07/22 06:20:29;;;;;;;15.07;10.07;;;16.40;99.90;;;;;;5010117;28;20727;-69
2023/07/22 06:22:54;;;;;;;14.90;9.63;;;16.50;99.90;;;;;;5002923;28;20060;-70
2023/07/22 06:25:20;;;;;;;14.40;9.18;;;16.60;99.90;;;;;;5011609;28;20492;-70
2023/07/22 06:27:46;;;;;;;12.27;7.15;;;16.60;99.90;;;;;;5013509;28;20064;-70
2023/07/22 06:30:12;;;;;;;10.80;6.78;;;16.70;99.90;;;;;;5012309;28;20057;-69
2023/07/22 06:32:38;;;;;;;9.73;7.00;;;16.80;99.90;;;;;;5010590;28;20393;-70
2023/07/22 06:35:04;;;;;;;10.27;7.07;;;16.90;99.90;;;;;;5014425;28;20054;-70
2023/07/22 06:37:30;;;;;;;16.55;12.35;;;16.90;99.90;;;;;;5007419;28;20049;-70
2023/07/22 06:39:56;;;;;;;9.18;6.60;;;17.00;99.90;;;;;;5011450;28;20104;-70
2023/07/22 06:42:22;;;;;;;8.82;7.47;;;17.10;99.90;;;;;;5013469;28;20433;-70
2023/07/22 06:44:48;;;;;;;9.07;7.20;;;17.10;99.90;;;;;;5012711;28;20060;-70
2023/07/22 06:47:14;;;;;;;9.55;7.53;;;17.20;99.90;;;;;;5011929;28;20046;-70
2023/07/22 06:49:43;;;;;;;9.85;6.97;;;17.20;99.90;;;;;;5011122;28;20100;-70
2023/07/22 06:52:09;;;;;;;13.80;6.57;;;17.20;99.90;;;;;;5011287;28;20402;-70
2023/07/22 06:54:35;;;;;;;11.77;7.05;;;17.30;99.90;;;;;;5011056;28;20057;-70
2023/07/22 06:57:01;;;;;;;10.50;6.43;;;17.30;99.90;;;;;;5014575;28;20057;-70
2023/07/22 06:59:27;;;;;;;11.10;7.65;;;17.30;99.90;;;;;;5012176;28;20050;-70
2023/07/22 07:01:52;;;;;;;9.45;6.38;;;17.30;99.90;;;;;;5013440;28;20046;-70
2023/07/22 07:04:18;;;;;;;9.68;6.50;;;17.30;99.90;;;;;;5012082;28;20174;-70
2023/07/22 07:06:45;;;;;;;8.45;6.47;;;17.40;99.90;;;;;;5011499;28;20041;-70
2023/07/22 07:09:11;;;;;;;8.60;6.55;;;17.50;99.90;;;;;;5009399;28;20072;-70
2023/07/22 07:11:37;;;;;;;8.77;6.13;;;17.50;99.90;;;;;;5011896;28;20398;-70
2023/07/22 07:14:03;;;;;;;9.18;6.47;;;17.60;99.90;;;;;;5008600;28;20033;-70
2023/07/22 07:16:31;;;;;;;8.73;6.32;;;17.60;99.90;;;;;;5010752;28;20100;-70
2023/07/22 07:18:58;;;;;;;9.02;6.03;;;17.60;99.90;;;;;;5011277;28;20124;-70
2023/07/22 07:21:24;;;;;;;6.82;4.80;;;17.70;99.90;;;;;;5011644;28;20053;-70
2023/07/22 07:23:51;;;;;;;6.55;5.03;;;17.80;99.90;;;;;;5007216;28;20041;-70
2023/07/22 07:26:17;;;;;;;7.43;5.22;;;17.90;99.90;;;;;;5011560;28;20096;-70
2023/07/22 07:28:43;;;;;;;6.63;4.88;;;18.00;99.90;;;;;;5007727;28;20053;-70
2023/07/22 07:31:09;;;;;;;8.40;5.05;;;18.00;99.90;;;;;;5001291;28;20082;-70
2023/07/22 07:33:35;;;;;;;6.85;4.55;;;18.10;99.90;;;;;;5009095;28;20088;-70
2023/07/22 07:36:01;;;;;;;5.78;4.70;;;18.10;99.90;;;;;;5010746;28;20045;-69
2023/07/22 07:38:28;;;;;;;5.75;4.35;;;18.10;99.90;;;;;;5010054;28;20092;-70
2023/07/22 07:40:59;;;;;;;4.95;4.10;;;18.10;99.90;;;;;;5007799;28;20046;-70
2023/07/22 07:43:26;;;;;;;6.55;4.80;;;18.10;99.90;;;;;;5012049;28;20049;-70
2023/07/22 07:46:12;;;;;;;6.65;4.85;;;18.10;99.90;;;;;;5009800;28;20081;-70
2023/07/22 07:48:37;;;;;;;8.02;4.43;;;18.10;99.90;;;;;;5007979;28;20059;-70
2023/07/22 07:51:03;;;;;;;5.28;3.63;;;18.10;99.90;;;;;;5012804;28;20050;-70
2023/07/22 07:53:29;;;;;;;6.40;4.35;;;18.10;99.90;;;;;;5010866;28;20042;-70
2023/07/22 07:55:54;;;;;;;6.25;4.82;;;18.10;99.90;;;;;;5010988;28;20145;-70
2023/07/22 07:58:20;;;;;;;7.18;4.65;;;18.10;99.90;;;;;;5012841;28;20041;-70
2023/07/22 08:00:45;;;;;;;4.90;4.15;;;18.10;99.90;;;;;;5010109;28;20037;-70
2023/07/22 08:03:11;;;;;;;5.82;4.50;;;18.20;99.90;;;;;;5003165;28;20042;-70
2023/07/22 08:05:37;;;;;;;6.78;5.57;;;18.20;99.90;;;;;;5009967;28;20482;-70
2023/07/22 08:08:04;;;;;;;7.22;4.88;;;18.20;99.90;;;;;;5010707;28;20457;-71
2023/07/22 08:10:29;;;;;;;9.07;5.10;;;18.20;99.90;;;;;;5010664;28;20389;-70
2023/07/22 08:12:55;;;;;;;5.70;4.10;;;18.10;99.90;;;;;;5010779;28;20042;-70
2023/07/22 08:15:21;;;;;;;4.45;3.53;;;18.20;99.90;;;;;;5010560;28;20112;-70
2023/07/22 08:17:46;;;;;;;5.63;3.53;;;18.20;99.90;;;;;;5010865;28;20390;-70
2023/07/22 08:20:12;;;;;;;5.95;4.13;;;18.20;99.90;;;;;;5007623;28;20103;-70
2023/07/22 08:22:38;;;;;;;7.72;4.35;;;18.10;99.90;;;;;;5011189;28;20073;-70
2023/07/22 08:25:04;;;;;;;6.72;4.30;;;18.20;99.90;;;;;;5004228;28;20125;-70
2023/07/22 08:27:29;;;;;;;8.00;4.93;;;18.10;99.90;;;;;;5011329;28;20058;-71
2023/07/22 08:29:55;;;;;;;6.82;4.40;;;18.10;99.90;;;;;;4998375;28;20080;-70
2023/07/22 08:32:21;;;;;;;7.75;4.35;;;18.00;99.90;;;;;;5009080;28;20054;-71
2023/07/22 08:34:46;;;;;;;7.25;5.00;;;18.00;99.90;;;;;;5010817;28;20378;-70
2023/07/22 08:37:12;;;;;;;7.88;4.93;;;18.00;99.90;;;;;;5009794;28;20037;-70
2023/07/22 08:39:38;;;;;;;7.88;4.93;;;18.00;99.90;;;;;;5018523;28;20072;-70
2023/07/22 08:42:05;;;;;;;7.70;4.32;;;18.10;99.90;;;;;;5003655;28;20106;-70
2023/07/22 08:44:35;;;;;;;5.65;4.10;;;18.10;99.90;;;;;;4997940;28;20076;-70
2023/07/22 08:47:03;;;;;;;7.30;4.20;;;18.20;99.90;;;;;;5008526;28;20041;-71
2023/07/22 08:49:30;;;;;;;6.70;4.00;;;18.20;99.90;;;;;;4998303;28;20121;-70
2023/07/22 08:51:57;;;;;;;5.45;4.10;;;18.30;99.90;;;;;;5002409;28;20045;-70
2023/07/22 08:54:23;;;;;;;5.85;4.18;;;18.30;99.90;;;;;;4999149;28;20042;-70
2023/07/22 08:56:50;;;;;;;6.40;4.25;;;18.30;99.90;;;;;;5002354;28;20050;-70
2023/07/22 08:59:20;;;;;;;6.57;3.95;;;18.30;99.90;;;;;;5005890;28;20819;-70
2023/07/22 09:01:48;;;;;;;5.43;3.80;;;18.20;99.90;;;;;;5006173;28;20116;-70
2023/07/22 09:04:14;;;;;;;6.70;4.00;;;18.10;99.90;;;;;;5005347;28;20034;-70
2023/07/22 09:06:41;;;;;;;7.72;4.20;;;18.10;99.90;;;;;;5003695;28;20052;-70
2023/07/22 09:09:08;;;;;;;8.35;4.13;;;18.10;99.90;;;;;;5006893;28;20390;-71
2023/07/22 09:11:34;;;;;;;9.43;4.88;;;18.00;99.90;;;;;;5008409;28;20115;-70
2023/07/22 09:14:02;;;;;;;11.45;5.10;;;17.90;99.90;;;;;;5008379;28;20041;-70
2023/07/22 09:16:29;;;;;;;9.57;5.50;;;17.80;99.90;;;;;;5009312;28;20496;-70
2023/07/22 09:18:57;;;;;;;8.95;5.47;;;17.70;99.90;;;;;;5006947;28;20068;-70
2023/07/22 09:21:23;;;;;;;8.77;5.93;;;17.70;99.90;;;;;;5006089;28;20046;-71
2023/07/22 09:23:48;;;;;;;8.18;5.70;;;17.60;99.90;;;;;;5004112;28;20040;-70
2023/07/22 09:26:17;;;;;;;7.15;5.75;;;17.60;99.90;;;;;;4994956;28;20046;-70
2023/07/22 09:28:52;;;;;;;6.57;4.97;;;17.60;99.90;;;;;;4999587;28;20085;-70
2023/07/22 09:31:18;;;;;;;7.78;5.15;;;17.60;99.90;;;;;;5003750;28;20045;-70
2023/07/22 09:33:44;;;;;;;10.75;5.10;;;17.60;99.90;;;;;;5001963;28;20108;-70
2023/07/22 09:36:11;;;;;;;7.43;4.97;;;17.60;99.90;;;;;;5001481;28;20050;-71
2023/07/22 09:38:36;;;;;;;6.88;5.50;;;17.60;99.90;;;;;;4996822;28;20097;-70
2023/07/22 09:41:02;;;;;;;8.02;5.50;;;17.60;99.90;;;;;;4999961;28;20042;-70
2023/07/22 09:43:30;;;;;;;8.13;5.20;;;17.60;99.90;;;;;;5007126;28;20034;-70
2023/07/22 09:45:55;;;;;;;7.30;5.30;;;17.60;99.90;;;;;;5011006;28;20045;-70
2023/07/22 09:48:22;;;;;;;9.50;6.22;;;17.50;99.90;;;;;;5008412;28;20046;-70
2023/07/22 09:50:58;;;;;;;7.68;5.45;;;17.50;99.90;;;;;;5010868;28;20038;-70
2023/07/22 09:53:23;;;;;;;10.10;5.75;;;17.50;99.90;;;;;;5013649;28;20082;-70
2023/07/22 09:55:52;;;;;;;8.25;5.45;;;17.60;99.90;;;;;;5006797;28;20072;-70
2023/07/22 09:58:18;;;;;;;8.18;6.07;;;17.60;99.90;;;;;;4998347;28;20072;-70
2023/07/22 10:00:49;;;;;;;11.38;6.35;;;17.60;99.90;;;;;;5007122;28;20038;-70
2023/07/22 10:03:18;;;;;;;8.00;5.82;;;17.60;99.90;;;;;;5014174;28;20124;-70
2023/07/22 10:05:46;;;;;;;9.02;5.20;;;;;;;;;;5007914;28;20100;-70
2023/07/22 10:08:12;;;;;;;9.55;5.43;;;;;;;;;;5012382;28;20367;-70
2023/07/22 10:10:39;;;;;;;8.07;5.93;;;;;;;;;;5007456;28;20088;-71
2023/07/22 10:13:05;;;;;;;8.43;5.63;;;17.60;99.90;;;;;;5007465;28;20073;-70
2023/07/22 10:15:35;;;;;;;8.85;6.45;;;17.30;99.90;;;;;;5002900;28;20041;-70
2023/07/22 10:18:03;;;;;;;10.27;6.95;;;17.30;99.90;;;;;;5012785;28;20042;-70
2023/07/22 10:20:29;;;;;;;9.40;6.60;;;17.30;99.90;;;;;;5013931;28;20045;-70
2023/07/22 10:22:56;;;;;;;11.75;6.75;;;;;;;;;;5011773;28;20386;-70
2023/07/22 10:25:22;;;;;;;11.98;6.53;;;;;;;;;;5011763;28;20089;-70
2023/07/22 10:27:49;;;;;;;9.88;7.05;;;;;;;;;;5010737;28;20057;-69
2023/07/22 10:30:16;;;;;;;12.82;6.57;;;;;;;;;;5009173;28;20042;-69
2023/07/22 10:32:54;;;;;;;9.35;5.28;;;;;;;;;;5002878;28;20049;-69
2023/07/22 10:35:35;;;;;;;8.65;5.50;;;;;;;;;;5006927;28;20117;-70
2023/07/22 10:38:10;;;;;;;9.18;5.90;;;;;;;;;;4995290;28;21743;-69
2023/07/22 10:40:46;;;;;;;6.43;4.88;;;;;;;;;;5009694;28;20050;-70
2023/07/22 10:43:12;;;;;;;9.93;6.07;;;;;;;;;;5011357;28;20077;-69
2023/07/22 10:45:42;;;;;;;8.65;5.68;;;;;;;;;;5007072;28;20435;-69
2023/07/22 10:48:12;;;;;;;11.60;5.40;;;;;;;;;;4993520;28;20375;-68
2023/07/22 10:50:40;;;;;;;7.10;4.97;;;;;;;;;;5009707;28;20042;-69
2023/07/22 10:53:06;;;;;;;9.05;5.40;;;;;;;;;;5001744;28;20081;-69
2023/07/22 10:55:32;;;;;;;6.05;5.03;;;;;;;;;;5009575;28;20052;-69
2023/07/22 10:58:05;;;;;;;9.50;5.35;;;;;;;;;;5004006;28;20181;-69
2023/07/22 11:00:31;;;;;;;9.20;5.45;;;;;;;;;;4999401;28;20752;-69
2023/07/22 11:03:11;;;;;;;7.15;5.30;;;;;;;;;;5006418;28;20157;-69
2023/07/22 11:05:55;;;;;;;8.52;5.28;;;;;;;;;;4999305;28;20129;-69
2023/07/22 11:08:37;;;;;;;6.20;5.10;;;;;;;;;;5002318;28;20497;-69
2023/07/22 11:11:05;;;;;;;7.15;5.40;;;;;;;;;;5005652;28;20137;-70
2023/07/22 11:13:35;;;;;;;8.70;5.28;;;;;;;;;;5001739;28;20045;-70
2023/07/22 11:16:01;;;;;;;7.85;5.13;;;;;;;;;;5010500;28;20052;-70
2023/07/22 11:18:40;;;;;;;6.72;4.75;;;;;;;;;;5010686;28;20490;-69
2023/07/22 11:21:12;;;;;;;8.32;5.45;;;;;;;;;;5010917;28;20042;-69
2023/07/22 11:23:38;;;;;;;7.15;5.18;;;;;;;;;;5008981;28;20445;-69
2023/07/22 11:26:05;;;;;;;8.60;5.00;;;;;;;;;;5000701;28;20108;-70
2023/07/22 11:28:31;;;;;;;9.82;5.00;;;;;;;;;;5009088;28;20065;-69
2023/07/22 11:30:58;;;;;;;5.45;4.28;;;;;;;;;;5010653;28;20124;-69
2023/07/22 11:33:25;;;;;;;6.50;4.78;;;;;;;;;;5000288;28;20069;-69
2023/07/22 11:35:51;;;;;;;6.43;4.35;;;;;;;;;;5007790;28;20062;-69
2023/07/22 11:38:16;;;;;;;6.05;4.38;;;17.80;99.90;;;;;;5011767;28;20124;-69
2023/07/22 11:40:42;;;;;;;8.63;4.38;;;18.20;99.90;;;;;;5010454;28;20129;-69
2023/07/22 11:43:08;;;;;;;8.93;4.65;;;;;;;;;;5011855;28;20069;-69
2023/07/22 11:45:38;;;;;;;6.38;3.88;;;18.10;99.90;;;;;;5009290;28;20438;-70
2023/07/22 11:48:09;;;;;;;7.55;4.35;;;;;;;;;;4998369;28;20057;-70
2023/07/22 11:50:35;;;;;;;9.40;4.80;;;;;;;;;;5007556;28;20488;-70
2023/07/22 11:53:01;;;;;;;7.30;4.82;;;;;;;;;;5010553;28;20042;-69
2023/07/22 11:55:28;;;;;;;8.73;4.50;;;;;;;;;;5001391;28;20100;-69
2023/07/22 11:57:54;;;;;;;12.25;4.35;;;;;;;;;;5000467;28;20046;-70
2023/07/22 12:00:21;;;;;;;6.82;3.65;;;;;;;;;;4994767;28;20486;-70
2023/07/22 12:02:47;;;;;;;4.93;4.07;;;;;;;;;;5006526;28;20042;-70
2023/07/22 12:05:20;;;;;;;7.68;3.83;;;;;;;;;;5005233;28;20402;-70
2023/07/22 12:07:46;;;;;;;3.85;3.45;;;;;;;;;;5001171;28;20128;-69
2023/07/22 12:10:13;;;;;;;4.32;3.33;;;18.00;99.90;;;;;;4998380;28;20142;-69
2023/07/22 12:12:47;;;;;;;8.23;4.30;;;18.20;99.90;;;;;;5001185;28;20050;-70
2023/07/22 12:15:15;;;;;;;7.35;3.45;;;18.10;99.90;;;;;;5009924;28;20117;-70
2023/07/22 12:18:00;;;;;;;10.50;3.55;;;18.10;99.90;;;;;;5007825;28;20054;-70
2023/07/22 12:20:31;;;;;;;6.03;3.22;;;18.10;99.90;;;;;;5008085;28;20405;-69
2023/07/22 12:22:57;;;;;;;6.22;3.67;;;;;;;;;;4992018;28;20046;-69
2023/07/22 12:25:24;;;;;;;6.03;3.72;;;;;;;;;;5012414;28;20130;-70
2023/07/22 12:27:50;;;;;;;5.93;3.40;;;;;;;;;;5010176;28;20552;-70
2023/07/22 12:30:16;;;;;;;5.78;3.63;;;;;;;;;;5009088;28;20053;-69
2023/07/22 12:32:43;;;;;;;5.15;3.67;;;;;;;;;;5009806;28;20038;-70
2023/07/22 12:35:10;;;;;;;5.82;3.08;;;;;;;;;;5011442;28;20470;-69
2023/07/22 12:37:36;;;;;;;7.10;3.60;;;;;;;;;;5009226;28;20049;-69
2023/07/22 12:40:07;;;;;;;6.18;3.20;;;;;;;;;;5007594;28;20493;-69
2023/07/22 12:42:34;;;;;;;7.70;3.55;;;;;;;;;;5008256;28;20054;-70
2023/07/22 12:45:00;;;;;;;6.93;3.78;;;;;;;;;;5008563;28;20129;-69
2023/07/22 12:47:26;;;;;;;6.82;3.90;;;;;;;;;;4998347;28;20078;-70
2023/07/22 12:49:52;;;;;;;9.32;4.10;;;;;;;;;;5009376;28;20514;-70
2023/07/22 12:52:19;;;;;;;9.57;3.88;;;;;;;;;;5006376;28;20048;-69
2023/07/22 12:54:45;;;;;;;7.13;3.67;;;17.90;99.90;;;;;;4992573;28;20092;-70
2023/07/22 12:57:10;;;;;;;10.25;4.72;;;17.50;99.90;;;;;;5003063;28;20050;-70
2023/07/22 12:59:36;;;;;;;10.95;4.55;;;17.40;99.90;;;;;;5009114;28;20045;-70
2023/07/22 13:02:02;;;;;;;11.05;4.35;;;17.50;99.90;;;;;;4995327;28;20029;-70
2023/07/22 13:04:28;;;;;;;8.30;4.35;;;17.60;99.90;;;;;;5007403;28;20457;-70
2023/07/22 13:06:53;;;;;;;9.48;4.53;;;17.60;99.90;;;;;;5013349;28;20046;-70
2023/07/22 13:09:20;;;;;;;6.50;4.32;;;17.80;99.90;;;;;;5000050;28;20173;-70
2023/07/22 13:11:46;;;;;;;8.82;4.63;;;;;;;;;;5013388;28;20049;-70
2023/07/22 13:14:12;;;;;;;8.52;4.80;;;;;;;;;;5013897;28;20103;-70
2023/07/22 13:16:38;;;;;;;8.18;4.43;;;;;;;;;;5007005;28;20054;-70
2023/07/22 13:19:04;;;;;;;10.55;4.80;;;;;;;;;;5006226;28;20044;-70
2023/07/22 13:21:30;;;;;;;10.70;5.60;;;;;;;;;;5013228;28;20064;-70
2023/07/22 13:23:56;;;;;;;10.35;5.40;;;17.90;99.90;;;;;;5014786;28;20452;-70
2023/07/22 13:26:22;;;;;;;10.75;5.03;;;;;;;;;;5009998;28;20129;-70
2023/07/22 13:28:48;;;;;;;11.10;5.30;;;17.70;99.90;;;;;;5003016;28;20050;-70
2023/07/22 13:31:13;;;;;;;10.70;5.38;;;17.60;99.90;;;;;;5012353;28;20050;-70
2023/07/22 13:33:39;;;;;;;11.93;5.13;;;17.50;99.90;;;;;;5008767;28;20037;-70
2023/07/22 13:36:06;;;;;;;9.90;4.60;;;17.50;99.90;;;;;;5006106;28;20483;-70
2023/07/22 13:38:32;;;;;;;8.73;5.20;;;17.70;99.90;;;;;;4995527;28;20060;-70
2023/07/22 13:40:57;;;;;;;8.48;5.35;;;17.70;99.90;;;;;;5001727;28;20046;-70
2023/07/22 13:43:23;;;;;;;10.10;5.70;;;17.80;99.90;;;;;;5008417;28;20053;-70
2023/07/22 13:45:49;;;;;;;9.95;5.57;;;17.80;99.90;;;;;;5002215;28;20446;-70
2023/07/22 13:48:17;;;;;;;9.35;5.55;;;17.90;99.90;;;;;;5002606;28;20061;-70